createdAt,value
2023-05-05T00:01:01.144Z,100766.78
2023-05-05T00:04:04.298Z,100767.16
2023-05-05T00:07:07.186Z,100761.94
2023-05-05T00:10:10.733Z,100774.09
2023-05-05T00:13:15.203Z,100764.09
2023-05-05T00:16:18.381Z,100759.19
2023-05-05T00:19:21.104Z,100769.03
2023-05-05T00:22:24.653Z,100757.38
2023-05-05T00:25:27.465Z,100758.97
2023-05-05T00:28:30.821Z,100751.31
2023-05-05T00:31:33.672Z,100750.03
2023-05-05T00:34:36.695Z,100752.19
2023-05-05T00:37:39.301Z,100745.87
2023-05-05T00:40:43.103Z,100745.13
2023-05-05T00:43:46.480Z,100748.66
2023-05-05T00:46:49.773Z,100747.34
2023-05-05T00:49:52.507Z,100750.22
2023-05-05T00:53:01.089Z,100746.94
2023-05-05T00:56:04.166Z,100743.22
2023-05-05T00:59:07.235Z,100736.47
2023-05-05T01:02:10.764Z,100737.34
2023-05-05T01:05:15.425Z,100738.66
2023-05-05T01:08:45.057Z,100731.19
2023-05-05T01:12:20.403Z,100734.12
2023-05-05T01:15:34.486Z,100730.75
2023-05-05T01:18:57.177Z,100734.78
2023-05-05T01:22:02.989Z,100729.75
2023-05-05T01:25:21.093Z,100730.97
2023-05-05T01:28:45.604Z,100736.41
2023-05-05T01:31:53.846Z,100734.66
2023-05-05T01:35:04.661Z,100736.41
2023-05-05T01:38:25.675Z,100739.03
2023-05-05T01:41:39.710Z,100736.09
2023-05-05T01:44:44.723Z,100737.00
2023-05-05T01:47:48.170Z,100738.50
2023-05-05T01:50:54.253Z,100731.09
2023-05-05T01:54:01.883Z,100727.63
2023-05-05T01:57:07.813Z,100730.09
2023-05-05T02:00:11.725Z,100728.28
2023-05-05T02:03:18.147Z,100732.34
2023-05-05T02:06:23.124Z,100725.63
2023-05-05T02:09:28.556Z,100722.03
2023-05-05T02:12:32.907Z,100727.09
2023-05-05T02:15:37.778Z,100727.91
2023-05-05T02:18:42.753Z,100725.63
2023-05-05T02:21:45.787Z,100726.81
2023-05-05T02:24:49.782Z,100725.75
2023-05-05T02:27:57.458Z,100727.41
2023-05-05T02:31:01.489Z,100716.81
2023-05-05T02:34:07.707Z,100712.78
2023-05-05T02:37:16.026Z,100707.16
2023-05-05T02:40:24.583Z,100705.41
2023-05-05T02:43:32.951Z,100713.44
2023-05-05T02:46:39.048Z,100702.50
2023-05-05T02:49:43.328Z,100705.56
2023-05-05T02:52:46.297Z,100710.25
2023-05-05T02:55:53.978Z,100710.72
2023-05-05T02:59:09.002Z,100701.03
2023-05-05T03:02:39.129Z,100712.97
2023-05-05T03:05:47.735Z,100711.50
2023-05-05T03:09:03.910Z,100712.25
2023-05-05T03:12:10.551Z,100706.47
2023-05-05T03:15:14.742Z,100713.44
2023-05-05T03:18:19.546Z,100716.22
2023-05-05T03:21:23.236Z,100713.16
2023-05-05T03:24:25.990Z,100712.16
2023-05-05T03:27:29.807Z,100708.78
2023-05-05T03:30:32.613Z,100713.28
2023-05-05T03:33:35.659Z,100713.78
2023-05-05T03:36:38.921Z,100723.97
2023-05-05T03:39:43.464Z,100716.06
2023-05-05T03:42:47.134Z,100712.97
2023-05-05T03:45:53.256Z,100708.78
2023-05-05T03:49:00.194Z,100717.00
2023-05-05T03:52:03.866Z,100712.63
2023-05-05T03:55:07.173Z,100717.34
2023-05-05T03:58:11.274Z,100719.28
2023-05-05T04:01:14.034Z,100722.34
2023-05-05T04:04:17.165Z,100726.25
2023-05-05T04:07:20.242Z,100716.16
2023-05-05T04:10:23.693Z,100725.25
2023-05-05T04:13:26.871Z,100723.75
2023-05-05T04:16:31.276Z,100732.09
2023-05-05T04:19:34.872Z,100729.78
2023-05-05T04:22:38.445Z,100736.22
2023-05-05T04:25:43.675Z,100731.47
2023-05-05T04:28:48.115Z,100717.84
2023-05-05T04:31:51.424Z,100726.78
2023-05-05T04:34:54.810Z,100727.12
2023-05-05T04:37:57.892Z,100733.81
2023-05-05T04:41:01.314Z,100736.94
2023-05-05T04:44:04.194Z,100737.84
2023-05-05T04:47:07.696Z,100740.44
2023-05-05T04:50:11.702Z,100736.03
2023-05-05T04:53:15.233Z,100739.94
2023-05-05T04:56:17.912Z,100749.88
2023-05-05T04:59:21.075Z,100751.91
2023-05-05T05:02:24.041Z,100747.69
2023-05-05T05:05:27.122Z,100748.00
2023-05-05T05:08:29.905Z,100742.81
2023-05-05T05:11:33.006Z,100749.88
2023-05-05T05:14:39.864Z,100747.38
2023-05-05T05:17:43.242Z,100750.47
2023-05-05T05:20:46.302Z,100740.22
2023-05-05T05:23:49.849Z,100744.84
2023-05-05T05:26:52.656Z,100750.13
2023-05-05T05:29:56.259Z,100747.06
2023-05-05T05:32:59.923Z,100748.25
2023-05-05T05:36:03.481Z,100743.00
2023-05-05T05:39:06.577Z,100749.47
2023-05-05T05:42:09.913Z,100751.47
2023-05-05T05:45:16.360Z,100755.09
2023-05-05T05:48:20.286Z,100747.50
2023-05-05T05:51:23.027Z,100751.47
2023-05-05T05:54:26.781Z,100755.44
2023-05-05T05:57:29.481Z,100764.16
2023-05-05T06:00:32.567Z,100759.03
2023-05-05T06:03:35.918Z,100761.00
2023-05-05T06:06:39.158Z,100760.62
2023-05-05T06:09:42.193Z,100757.47
2023-05-05T06:12:45.467Z,100768.19
2023-05-05T06:15:48.791Z,100762.06
2023-05-05T06:18:51.934Z,100762.06
2023-05-05T06:21:55.094Z,100751.00
2023-05-05T06:24:58.349Z,100748.87
2023-05-05T06:28:02.298Z,100760.41
2023-05-05T06:31:05.252Z,100760.78
2023-05-05T06:34:08.449Z,100745.84
2023-05-05T06:37:11.377Z,100758.34
2023-05-05T06:40:14.601Z,100745.25
2023-05-05T06:43:18.087Z,100748.50
2023-05-05T06:46:21.624Z,100754.88
2023-05-05T06:49:24.283Z,100754.00
2023-05-05T06:52:27.376Z,100763.81
2023-05-05T06:55:30.075Z,100758.25
2023-05-05T06:58:33.143Z,100756.38
2023-05-05T07:01:36.204Z,100764.25
2023-05-05T07:04:39.426Z,100764.97
2023-05-05T07:07:55.773Z,100758.81
2023-05-05T07:11:01.186Z,100758.81
2023-05-05T07:14:03.938Z,100760.38
2023-05-05T07:17:06.921Z,100761.50
2023-05-05T07:20:10.811Z,100756.66
2023-05-05T07:23:13.901Z,100759.34
2023-05-05T07:26:16.714Z,100767.38
2023-05-05T07:29:19.770Z,100763.34
2023-05-05T07:32:22.780Z,100754.59
2023-05-05T07:35:26.610Z,100758.59
2023-05-05T07:38:29.174Z,100760.16
2023-05-05T07:41:32.265Z,100762.41
2023-05-05T07:44:34.940Z,100768.53
2023-05-05T07:47:38.301Z,100765.87
2023-05-05T07:50:41.391Z,100763.41
2023-05-05T07:53:44.576Z,100756.84
2023-05-05T07:56:47.263Z,100756.53
2023-05-05T07:59:50.654Z,100754.81
2023-05-05T08:02:53.481Z,100753.75
2023-05-05T08:05:56.718Z,100751.91
2023-05-05T08:09:01.293Z,100748.84
2023-05-05T08:12:05.160Z,100755.09
2023-05-05T08:15:08.676Z,100747.31
2023-05-05T08:18:12.166Z,100756.19
2023-05-05T08:21:15.055Z,100752.44
2023-05-05T08:24:18.071Z,100748.03
2023-05-05T08:27:20.748Z,100756.78
2023-05-05T08:30:24.300Z,100746.97
2023-05-05T08:33:27.039Z,100751.38
2023-05-05T08:36:30.138Z,100753.44
2023-05-05T08:39:32.792Z,100753.09
2023-05-05T08:42:38.512Z,100749.25
2023-05-05T08:45:42.414Z,100751.16
2023-05-05T08:48:46.173Z,100749.34
2023-05-05T08:51:51.443Z,100753.50
2023-05-05T08:55:16.147Z,100741.00
2023-05-05T08:58:19.975Z,100741.28
2023-05-05T09:01:23.732Z,100744.09
2023-05-05T09:04:27.044Z,100734.88
2023-05-05T09:07:30.331Z,100731.00
2023-05-05T09:10:33.917Z,100732.03
2023-05-05T09:16:57.478Z,100725.16
2023-05-05T09:20:04.929Z,100716.84
2023-05-05T09:23:12.459Z,100710.59
2023-05-05T09:26:15.551Z,100718.16
2023-05-05T09:29:19.857Z,100705.88
2023-05-05T09:32:22.976Z,100710.44
2023-05-05T09:35:26.375Z,100702.06
2023-05-05T09:38:29.399Z,100709.59
2023-05-05T09:41:44.538Z,100709.50
2023-05-05T09:44:48.402Z,100717.03
2023-05-05T09:47:53.219Z,100702.38
2023-05-05T09:50:59.938Z,100704.59
2023-05-05T09:54:03.033Z,100703.59
2023-05-05T09:57:06.168Z,100697.13
2023-05-05T10:00:10.870Z,100699.97
2023-05-05T10:03:14.101Z,100692.56
2023-05-05T10:06:16.926Z,100684.00
2023-05-05T10:09:20.029Z,100684.00
2023-05-05T10:12:24.308Z,100691.34
2023-05-05T10:15:27.472Z,100683.06
2023-05-05T10:18:32.222Z,100674.19
2023-05-05T10:21:42.046Z,100678.50
2023-05-05T10:24:56.646Z,100678.56
2023-05-05T10:28:01.402Z,100674.25
2023-05-05T10:31:20.375Z,100670.56
2023-05-05T10:34:39.683Z,100661.88
2023-05-05T10:37:45.067Z,100666.56
2023-05-05T10:40:49.041Z,100654.06
2023-05-05T10:43:55.745Z,100655.34
2023-05-05T10:47:00.198Z,100650.81
2023-05-05T10:50:12.119Z,100652.03
2023-05-05T10:53:26.269Z,100645.28
2023-05-05T10:56:32.978Z,100640.50
2023-05-05T10:59:39.136Z,100638.75
2023-05-05T11:02:42.168Z,100639.12
2023-05-05T11:06:04.237Z,100638.41
2023-05-05T11:09:55.105Z,100625.69
2023-05-05T11:12:59.488Z,100625.78
2023-05-05T11:16:03.074Z,100617.81
2023-05-05T11:19:45.251Z,100621.94
2023-05-05T11:23:03.446Z,100609.91
2023-05-05T11:26:06.668Z,100609.78
2023-05-05T11:29:09.760Z,100603.56
2023-05-05T11:32:18.681Z,100603.47
2023-05-05T11:35:22.078Z,100607.41
2023-05-05T11:38:53.361Z,100600.78
2023-05-05T11:42:25.242Z,100600.03
2023-05-05T11:45:28.552Z,100593.81
2023-05-05T11:48:31.314Z,100598.84
2023-05-05T11:51:34.597Z,100588.56
2023-05-05T11:54:47.999Z,100588.97
2023-05-05T11:57:51.357Z,100586.94
2023-05-05T12:00:54.144Z,100583.06
2023-05-05T12:03:57.451Z,100581.19
2023-05-05T12:07:00.869Z,100578.94
2023-05-05T12:10:04.118Z,100584.69
2023-05-05T12:13:18.466Z,100576.75
2023-05-05T12:16:21.734Z,100580.47
2023-05-05T12:19:30.034Z,100579.94
2023-05-05T12:22:33.142Z,100562.63
2023-05-05T12:25:38.464Z,100572.63
2023-05-05T12:28:48.303Z,100578.69
2023-05-05T12:31:51.738Z,100572.63
2023-05-05T12:34:57.708Z,100564.69
2023-05-05T12:38:00.644Z,100564.59
2023-05-05T12:41:04.307Z,100555.13
2023-05-05T12:44:07.009Z,100557.78
2023-05-05T12:47:12.504Z,100556.38
2023-05-05T12:50:15.254Z,100554.91
2023-05-05T12:53:25.799Z,100548.22
2023-05-05T12:56:34.913Z,100556.72
2023-05-05T12:59:37.872Z,100541.50
2023-05-05T13:02:41.004Z,100543.56
2023-05-05T13:05:44.011Z,100543.22
2023-05-05T13:08:46.789Z,100532.78
2023-05-05T13:11:49.726Z,100529.84
2023-05-05T13:14:52.424Z,100533.06
2023-05-05T13:18:01.881Z,100514.56
2023-05-05T13:21:04.788Z,100516.50
2023-05-05T13:24:23.566Z,100514.75
2023-05-05T13:27:30.914Z,100507.38
2023-05-05T13:30:33.902Z,100506.88
2023-05-05T13:33:36.775Z,100499.84
2023-05-05T13:36:39.846Z,100495.63
2023-05-05T13:39:42.464Z,100506.84
2023-05-05T13:42:45.759Z,100499.03
2023-05-05T13:45:48.376Z,100492.06
2023-05-05T13:48:56.057Z,100488.56
2023-05-05T13:51:59.572Z,100478.38
2023-05-05T13:55:02.955Z,100481.56
2023-05-05T13:58:05.809Z,100487.31
2023-05-05T14:01:08.815Z,100478.75
2023-05-05T14:04:12.007Z,100481.59
2023-05-05T14:07:14.717Z,100469.81
2023-05-05T14:10:17.917Z,100472.09
2023-05-05T14:13:20.626Z,100462.56
2023-05-05T14:16:24.022Z,100461.94
2023-05-05T14:19:26.968Z,100462.59
2023-05-05T14:22:29.927Z,100459.03
2023-05-05T14:25:32.827Z,100460.22
2023-05-05T14:28:36.078Z,100460.75
2023-05-05T14:31:38.824Z,100471.91
2023-05-05T14:34:41.942Z,100460.41
2023-05-05T14:37:44.795Z,100457.31
2023-05-05T14:40:47.944Z,100461.81
2023-05-05T14:43:50.851Z,100463.75
2023-05-05T14:46:53.951Z,100461.88
2023-05-05T14:49:56.839Z,100465.84
2023-05-05T14:53:00.033Z,100466.28
2023-05-05T14:56:02.775Z,100456.63
2023-05-05T14:59:05.835Z,100451.72
2023-05-05T15:02:08.565Z,100449.59
2023-05-05T15:05:11.788Z,100451.41
2023-05-05T15:08:17.191Z,100443.91
2023-05-05T15:11:20.682Z,100450.41
2023-05-05T15:14:23.266Z,100447.25
2023-05-05T15:17:26.300Z,100446.91
2023-05-05T15:20:29.021Z,100440.91
2023-05-05T15:23:32.053Z,100442.47
2023-05-05T15:26:34.960Z,100443.81
2023-05-05T15:29:38.004Z,100442.72
2023-05-05T15:32:41.278Z,100449.84
2023-05-05T15:35:44.543Z,100445.84
2023-05-05T15:38:47.842Z,100451.28
2023-05-05T15:41:50.951Z,100442.72
2023-05-05T15:44:54.020Z,100445.41
2023-05-05T15:47:57.071Z,100438.72
2023-05-05T15:50:59.893Z,100440.41
2023-05-05T15:54:03.522Z,100433.47
2023-05-05T15:57:06.445Z,100431.16
2023-05-05T16:00:12.874Z,100424.38
2023-05-05T16:03:18.938Z,100427.09
2023-05-05T16:06:22.297Z,100427.19
2023-05-05T16:09:26.535Z,100429.59
2023-05-05T16:12:29.337Z,100424.44
2023-05-05T16:15:32.289Z,100418.88
2023-05-05T16:18:35.294Z,100408.38
2023-05-05T16:21:38.459Z,100411.66
2023-05-05T16:24:44.482Z,100407.41
2023-05-05T16:27:47.545Z,100407.53
2023-05-05T16:30:50.194Z,100400.13
2023-05-05T16:33:53.354Z,100412.00
2023-05-05T16:36:56.532Z,100397.47
2023-05-05T16:40:01.540Z,100400.03
2023-05-05T16:43:05.069Z,100404.50
2023-05-05T16:46:08.296Z,100403.28
2023-05-05T16:49:11.446Z,100397.63
2023-05-05T16:52:14.618Z,100392.19
2023-05-05T16:55:18.058Z,100394.62
2023-05-05T16:58:25.072Z,100398.38
2023-05-05T17:01:27.805Z,100399.84
2023-05-05T17:04:31.063Z,100389.09
2023-05-05T17:07:34.546Z,100383.53
2023-05-05T17:10:38.095Z,100390.09
2023-05-05T17:13:40.952Z,100389.37
2023-05-05T17:16:43.913Z,100396.78
2023-05-05T17:19:46.659Z,100393.78
2023-05-05T17:22:49.576Z,100405.78
2023-05-05T17:25:52.588Z,100403.56
2023-05-05T17:28:55.692Z,100404.47
2023-05-05T17:31:58.606Z,100394.22
2023-05-05T17:35:01.775Z,100399.31
2023-05-05T17:38:04.632Z,100398.75
2023-05-05T17:41:08.298Z,100408.41
2023-05-05T17:44:11.046Z,100415.94
2023-05-05T17:47:14.034Z,100414.28
2023-05-05T17:50:17.010Z,100406.50
2023-05-05T17:53:20.052Z,100425.72
2023-05-05T17:56:22.893Z,100417.13
2023-05-05T17:59:26.351Z,100429.19
2023-05-05T18:02:29.243Z,100423.87
2023-05-05T18:05:32.727Z,100422.03
2023-05-05T18:08:36.196Z,100426.19
2023-05-05T18:11:39.314Z,100429.19
2023-05-05T18:14:42.312Z,100424.25
2023-05-05T18:17:45.470Z,100422.91
2023-05-05T18:20:48.308Z,100425.81
2023-05-05T18:23:51.565Z,100419.91
2023-05-05T18:26:54.752Z,100425.88
2023-05-05T18:29:57.877Z,100433.25
2023-05-05T18:33:00.836Z,100430.19
2023-05-05T18:36:04.211Z,100439.88
2023-05-05T18:39:06.909Z,100444.63
2023-05-05T18:42:10.065Z,100441.91
2023-05-05T18:45:13.065Z,100445.56
2023-05-05T18:48:16.709Z,100451.28
2023-05-05T18:51:19.585Z,100456.06
2023-05-05T18:54:23.209Z,100466.09
2023-05-05T18:57:27.447Z,100463.28
2023-05-05T19:00:31.185Z,100466.09
2023-05-05T19:03:34.321Z,100462.56
2023-05-05T19:06:39.430Z,100467.03
2023-05-05T19:09:44.752Z,100461.94
2023-05-05T19:12:48.056Z,100469.34
2023-05-05T19:15:52.016Z,100464.97
2023-05-05T19:18:58.895Z,100466.97
2023-05-05T19:22:02.985Z,100474.19
2023-05-05T19:25:06.979Z,100460.25
2023-05-05T19:28:11.442Z,100467.84
2023-05-05T19:31:14.861Z,100468.31
2023-05-05T19:34:17.602Z,100465.09
2023-05-05T19:37:21.164Z,100470.28
2023-05-05T19:40:24.068Z,100453.94
2023-05-05T19:43:27.157Z,100466.81
2023-05-05T19:46:30.238Z,100466.03
2023-05-05T19:49:33.195Z,100464.44
2023-05-05T19:52:37.310Z,100457.66
2023-05-05T19:55:40.723Z,100468.06
2023-05-05T19:58:57.879Z,100470.50
2023-05-05T20:02:01.036Z,100471.31
2023-05-05T20:05:04.404Z,100470.09
2023-05-05T20:08:07.189Z,100466.09
2023-05-05T20:11:10.385Z,100458.94
2023-05-05T20:14:13.080Z,100464.53
2023-05-05T20:17:20.337Z,100473.31
2023-05-05T20:20:23.198Z,100465.69
2023-05-05T20:23:27.108Z,100457.69
2023-05-05T20:26:31.186Z,100457.28
2023-05-05T20:29:34.227Z,100453.28
2023-05-05T20:32:37.389Z,100458.09
2023-05-05T20:35:40.553Z,100451.28
2023-05-05T20:38:43.656Z,100461.31
2023-05-05T20:41:46.940Z,100452.50
2023-05-05T20:44:49.888Z,100454.09
2023-05-05T20:47:53.180Z,100446.09
2023-05-05T20:50:56.230Z,100449.66
2023-05-05T20:53:59.285Z,100442.03
2023-05-05T20:57:03.254Z,100435.66
2023-05-05T21:00:07.787Z,100432.06
2023-05-05T21:03:10.781Z,100428.47
2023-05-05T21:06:14.021Z,100421.28
2023-05-05T21:09:16.949Z,100429.22
2023-05-05T21:12:20.260Z,100426.81
2023-05-05T21:15:24.066Z,100423.56
2023-05-05T21:18:27.904Z,100421.91
2023-05-05T21:21:30.686Z,100412.81
2023-05-05T21:24:33.557Z,100419.94
2023-05-05T21:27:36.355Z,100422.66
2023-05-05T21:30:39.725Z,100416.34
2023-05-05T21:33:42.629Z,100411.94
2023-05-05T21:36:46.975Z,100416.75
2023-05-05T21:39:49.817Z,100417.91
2023-05-05T21:42:54.275Z,100420.31
2023-05-05T21:46:06.895Z,100415.88
2023-05-05T21:49:17.200Z,100415.03
2023-05-05T21:52:21.074Z,100410.56
2023-05-05T21:55:25.115Z,100416.13
2023-05-05T21:58:28.021Z,100420.47
2023-05-05T22:01:33.058Z,100416.91
2023-05-05T22:04:37.413Z,100418.97
2023-05-05T22:07:41.228Z,100418.12
2023-05-05T22:10:45.363Z,100426.06
2023-05-05T22:13:48.453Z,100426.38
2023-05-05T22:16:51.669Z,100429.16
2023-05-05T22:19:54.388Z,100424.75
2023-05-05T22:22:58.310Z,100418.34
2023-05-05T22:26:02.953Z,100422.34
2023-05-05T22:29:08.371Z,100419.94
2023-05-05T22:32:11.659Z,100419.56
2023-05-05T22:35:15.947Z,100423.78
2023-05-05T22:38:19.597Z,100421.38
2023-05-05T22:41:22.662Z,100417.06
2023-05-05T22:44:25.371Z,100416.09
2023-05-05T22:47:28.898Z,100408.00
2023-05-05T22:50:31.703Z,100414.41
2023-05-05T22:53:34.896Z,100423.63
2023-05-05T22:56:39.276Z,100419.31
2023-05-05T22:59:42.280Z,100421.66
2023-05-05T23:02:45.918Z,100415.72
2023-05-05T23:05:50.783Z,100418.16
2023-05-05T23:08:55.157Z,100414.19
2023-05-05T23:11:58.118Z,100427.09
2023-05-05T23:15:01.978Z,100415.75
2023-05-05T23:18:07.252Z,100425.72
2023-05-05T23:21:11.653Z,100421.44
2023-05-05T23:24:16.566Z,100415.06
2023-05-05T23:27:20.069Z,100417.50
2023-05-05T23:30:23.506Z,100418.25
2023-05-05T23:33:26.888Z,100415.00
2023-05-05T23:36:30.376Z,100415.97
2023-05-05T23:39:36.275Z,100411.78
2023-05-05T23:42:39.279Z,100421.47
2023-05-05T23:45:42.357Z,100420.69
2023-05-05T23:48:45.429Z,100421.47
2023-05-05T23:51:48.098Z,100428.25
2023-05-05T23:54:51.222Z,100414.84
2023-05-05T23:57:53.903Z,100418.69
